sensor_id;sensor_type;location;lat;lon;timestamp;temperature;humidity
42989;DHT22;28622;43.716;20.668;2022-12-29T00:02:12;3.80;99.90
42989;DHT22;28622;43.716;20.668;2022-12-29T00:04:38;3.80;99.90
42989;DHT22;28622;43.716;20.668;2022-12-29T00:07:04;3.70;99.90
42989;DHT22;28622;43.716;20.668;2022-12-29T00:09:31;3.70;99.90
42989;DHT22;28622;43.716;20.668;2022-12-29T00:11:57;3.70;99.90
42989;DHT22;28622;43.716;20.668;2022-12-29T00:14:23;3.60;99.90
42989;DHT22;28622;43.716;20.668;2022-12-29T00:17:07;3.60;99.90
42989;DHT22;28622;43.716;20.668;2022-12-29T00:19:33;3.60;99.90
42989;DHT22;28622;43.716;20.668;2022-12-29T00:22:17;3.50;99.90
42989;DHT22;28622;43.716;20.668;2022-12-29T00:25:02;3.50;99.90
42989;DHT22;28622;43.716;20.668;2022-12-29T00:27:47;3.40;99.90
42989;DHT22;28622;43.716;20.668;2022-12-29T00:30:31;3.40;99.90
42989;DHT22;28622;43.716;20.668;2022-12-29T00:33:21;3.30;99.90
42989;DHT22;28622;43.716;20.668;2022-12-29T00:36:24;3.20;99.90
42989;DHT22;28622;43.716;20.668;2022-12-29T00:41:42;3.20;99.90
42989;DHT22;28622;43.716;20.668;2022-12-29T00:44:26;3.20;99.90
42989;DHT22;28622;43.716;20.668;2022-12-29T00:46:51;3.20;99.90
42989;DHT22;28622;43.716;20.668;2022-12-29T00:49:17;3.20;99.90
42989;DHT22;28622;43.716;20.668;2022-12-29T00:52:01;3.20;99.90
42989;DHT22;28622;43.716;20.668;2022-12-29T00:54:31;3.20;99.90
42989;DHT22;28622;43.716;20.668;2022-12-29T00:56:57;3.10;99.90
42989;DHT22;28622;43.716;20.668;2022-12-29T00:59:23;3.10;99.90
42989;DHT22;28622;43.716;20.668;2022-12-29T01:01:50;3.10;99.90
42989;DHT22;28622;43.716;20.668;2022-12-29T01:04:18;3.00;99.90
42989;DHT22;28622;43.716;20.668;2022-12-29T01:06:44;3.00;99.90
42989;DHT22;28622;43.716;20.668;2022-12-29T01:09:10;3.00;99.90
42989;DHT22;28622;43.716;20.668;2022-12-29T01:11:55;3.00;99.90
42989;DHT22;28622;43.716;20.668;2022-12-29T01:14:21;3.00;99.90
42989;DHT22;28622;43.716;20.668;2022-12-29T01:16:47;2.90;99.90
42989;DHT22;28622;43.716;20.668;2022-12-29T01:19:14;2.90;99.90
42989;DHT22;28622;43.716;20.668;2022-12-29T01:21:40;2.90;99.90
42989;DHT22;28622;43.716;20.668;2022-12-29T01:24:06;2.80;99.90
42989;DHT22;28622;43.716;20.668;2022-12-29T01:26:32;2.80;99.90
42989;DHT22;28622;43.716;20.668;2022-12-29T01:28:58;2.80;99.90
42989;DHT22;28622;43.716;20.668;2022-12-29T01:31:23;2.70;99.90
42989;DHT22;28622;43.716;20.668;2022-12-29T01:33:49;2.70;99.90
42989;DHT22;28622;43.716;20.668;2022-12-29T01:36:16;2.70;99.90
42989;DHT22;28622;43.716;20.668;2022-12-29T01:38:43;2.60;99.90
42989;DHT22;28622;43.716;20.668;2022-12-29T01:41:10;2.60;99.90
42989;DHT22;28622;43.716;20.668;2022-12-29T01:43:44;2.60;99.90
42989;DHT22;28622;43.716;20.668;2022-12-29T01:46:39;2.50;99.90
42989;DHT22;28622;43.716;20.668;2022-12-29T01:51:43;2.60;99.90
42989;DHT22;28622;43.716;20.668;2022-12-29T01:54:19;2.50;99.90
42989;DHT22;28622;43.716;20.668;2022-12-29T01:56:47;2.40;99.90
42989;DHT22;28622;43.716;20.668;2022-12-29T01:59:18;2.40;99.90
42989;DHT22;28622;43.716;20.668;2022-12-29T02:01:45;2.30;99.90
42989;DHT22;28622;43.716;20.668;2022-12-29T02:04:11;2.30;99.90
42989;DHT22;28622;43.716;20.668;2022-12-29T02:06:52;2.20;99.90
42989;DHT22;28622;43.716;20.668;2022-12-29T02:09:19;2.20;99.90
42989;DHT22;28622;43.716;20.668;2022-12-29T02:11:45;2.10;99.90
42989;DHT22;28622;43.716;20.668;2022-12-29T02:14:12;2.10;99.90
42989;DHT22;28622;43.716;20.668;2022-12-29T02:28:26;2.10;99.90
42989;DHT22;28622;43.716;20.668;2022-12-29T02:34:01;2.20;99.90
42989;DHT22;28622;43.716;20.668;2022-12-29T02:39:46;2.10;99.90
42989;DHT22;28622;43.716;20.668;2022-12-29T02:45:05;2.10;99.90
42989;DHT22;28622;43.716;20.668;2022-12-29T02:48:01;2.10;99.90
42989;DHT22;28622;43.716;20.668;2022-12-29T02:50:33;2.10;99.90
42989;DHT22;28622;43.716;20.668;2022-12-29T02:53:05;2.10;99.90
42989;DHT22;28622;43.716;20.668;2022-12-29T02:55:32;2.10;99.90
42989;DHT22;28622;43.716;20.668;2022-12-29T02:58:24;2.00;99.90
42989;DHT22;28622;43.716;20.668;2022-12-29T03:04:21;1.90;99.90
42989;DHT22;28622;43.716;20.668;2022-12-29T03:07:25;1.80;99.90
42989;DHT22;28622;43.716;20.668;2022-12-29T03:10:20;1.70;99.90
42989;DHT22;28622;43.716;20.668;2022-12-29T03:13:03;1.70;99.90
42989;DHT22;28622;43.716;20.668;2022-12-29T03:15:57;1.70;99.90
42989;DHT22;28622;43.716;20.668;2022-12-29T03:18:37;1.70;99.90
42989;DHT22;28622;43.716;20.668;2022-12-29T03:23:41;1.60;99.90
42989;DHT22;28622;43.716;20.668;2022-12-29T03:26:11;1.60;99.90
42989;DHT22;28622;43.716;20.668;2022-12-29T03:28:50;1.60;99.90
42989;DHT22;28622;43.716;20.668;2022-12-29T03:31:17;1.60;99.90
42989;DHT22;28622;43.716;20.668;2022-12-29T03:33:45;1.60;99.90
42989;DHT22;28622;43.716;20.668;2022-12-29T03:36:17;1.60;99.90
42989;DHT22;28622;43.716;20.668;2022-12-29T03:38:48;1.60;99.90
42989;DHT22;28622;43.716;20.668;2022-12-29T03:41:19;1.60;99.90
42989;DHT22;28622;43.716;20.668;2022-12-29T03:43:46;1.60;99.90
42989;DHT22;28622;43.716;20.668;2022-12-29T03:46:11;1.60;99.90
42989;DHT22;28622;43.716;20.668;2022-12-29T03:48:37;1.70;99.90
42989;DHT22;28622;43.716;20.668;2022-12-29T03:51:03;1.70;99.90
42989;DHT22;28622;43.716;20.668;2022-12-29T03:53:29;1.60;99.90
42989;DHT22;28622;43.716;20.668;2022-12-29T03:55:55;1.60;99.90
42989;DHT22;28622;43.716;20.668;2022-12-29T03:58:20;1.60;99.90
42989;DHT22;28622;43.716;20.668;2022-12-29T04:00:46;1.60;99.90
42989;DHT22;28622;43.716;20.668;2022-12-29T04:03:12;1.60;99.90
42989;DHT22;28622;43.716;20.668;2022-12-29T04:05:37;1.50;99.90
42989;DHT22;28622;43.716;20.668;2022-12-29T04:08:03;1.50;99.90
42989;DHT22;28622;43.716;20.668;2022-12-29T04:10:29;1.50;99.90
42989;DHT22;28622;43.716;20.668;2022-12-29T04:12:55;1.50;99.90
42989;DHT22;28622;43.716;20.668;2022-12-29T04:15:21;1.50;99.90
42989;DHT22;28622;43.716;20.668;2022-12-29T04:17:49;1.50;99.90
42989;DHT22;28622;43.716;20.668;2022-12-29T04:20:15;1.50;99.90
42989;DHT22;28622;43.716;20.668;2022-12-29T04:23:00;1.50;99.90
42989;DHT22;28622;43.716;20.668;2022-12-29T04:25:26;1.50;99.90
42989;DHT22;28622;43.716;20.668;2022-12-29T04:27:52;1.40;99.90
42989;DHT22;28622;43.716;20.668;2022-12-29T04:30:18;1.40;99.90
42989;DHT22;28622;43.716;20.668;2022-12-29T04:32:43;1.40;99.90
42989;DHT22;28622;43.716;20.668;2022-12-29T04:35:09;1.40;99.90
42989;DHT22;28622;43.716;20.668;2022-12-29T04:37:35;1.40;99.90
42989;DHT22;28622;43.716;20.668;2022-12-29T04:40:01;1.30;99.90
42989;DHT22;28622;43.716;20.668;2022-12-29T04:42:26;1.30;99.90
42989;DHT22;28622;43.716;20.668;2022-12-29T04:44:52;1.30;99.90
42989;DHT22;28622;43.716;20.668;2022-12-29T04:47:18;1.20;99.90
42989;DHT22;28622;43.716;20.668;2022-12-29T04:49:43;1.30;99.90
42989;DHT22;28622;43.716;20.668;2022-12-29T04:52:12;1.10;99.90
42989;DHT22;28622;43.716;20.668;2022-12-29T04:54:38;1.00;99.90
42989;DHT22;28622;43.716;20.668;2022-12-29T04:57:05;0.90;99.90
42989;DHT22;28622;43.716;20.668;2022-12-29T04:59:30;0.90;99.90
42989;DHT22;28622;43.716;20.668;2022-12-29T05:01:56;1.00;99.90
42989;DHT22;28622;43.716;20.668;2022-12-29T05:04:22;1.10;99.90
42989;DHT22;28622;43.716;20.668;2022-12-29T05:06:48;1.10;99.90
42989;DHT22;28622;43.716;20.668;2022-12-29T05:09:13;1.20;99.90
42989;DHT22;28622;43.716;20.668;2022-12-29T05:11:39;1.10;99.90
42989;DHT22;28622;43.716;20.668;2022-12-29T05:14:05;1.10;99.90
42989;DHT22;28622;43.716;20.668;2022-12-29T05:16:31;1.20;99.90
42989;DHT22;28622;43.716;20.668;2022-12-29T05:18:56;1.20;99.90
42989;DHT22;28622;43.716;20.668;2022-12-29T05:21:22;1.30;99.90
42989;DHT22;28622;43.716;20.668;2022-12-29T05:23:48;1.20;99.90
42989;DHT22;28622;43.716;20.668;2022-12-29T05:26:14;1.20;99.90
42989;DHT22;28622;43.716;20.668;2022-12-29T05:28:39;1.20;99.90
42989;DHT22;28622;43.716;20.668;2022-12-29T05:31:05;1.20;99.90
42989;DHT22;28622;43.716;20.668;2022-12-29T05:33:31;1.20;99.90
42989;DHT22;28622;43.716;20.668;2022-12-29T05:35:57;1.20;99.90
42989;DHT22;28622;43.716;20.668;2022-12-29T05:38:22;1.20;99.90
42989;DHT22;28622;43.716;20.668;2022-12-29T05:40:48;1.20;99.90
42989;DHT22;28622;43.716;20.668;2022-12-29T05:43:14;1.20;99.90
42989;DHT22;28622;43.716;20.668;2022-12-29T05:45:40;1.20;99.90
42989;DHT22;28622;43.716;20.668;2022-12-29T05:48:05;1.20;99.90
42989;DHT22;28622;43.716;20.668;2022-12-29T05:50:31;1.10;99.90
42989;DHT22;28622;43.716;20.668;2022-12-29T05:52:57;1.00;99.90
42989;DHT22;28622;43.716;20.668;2022-12-29T05:55:22;0.90;99.90
42989;DHT22;28622;43.716;20.668;2022-12-29T05:57:48;0.90;99.90
42989;DHT22;28622;43.716;20.668;2022-12-29T06:00:14;0.90;99.90
42989;DHT22;28622;43.716;20.668;2022-12-29T06:02:40;0.90;99.90
42989;DHT22;28622;43.716;20.668;2022-12-29T06:05:06;0.80;99.90
42989;DHT22;28622;43.716;20.668;2022-12-29T06:07:32;0.90;99.90
42989;DHT22;28622;43.716;20.668;2022-12-29T06:09:58;1.00;99.90
42989;DHT22;28622;43.716;20.668;2022-12-29T06:12:24;0.90;99.90
42989;DHT22;28622;43.716;20.668;2022-12-29T06:14:49;0.80;99.90
42989;DHT22;28622;43.716;20.668;2022-12-29T06:17:15;0.90;99.90
42989;DHT22;28622;43.716;20.668;2022-12-29T06:19:41;0.80;99.90
42989;DHT22;28622;43.716;20.668;2022-12-29T06:22:06;0.70;99.90
42989;DHT22;28622;43.716;20.668;2022-12-29T06:24:33;0.70;99.90
42989;DHT22;28622;43.716;20.668;2022-12-29T06:26:58;0.80;99.90
42989;DHT22;28622;43.716;20.668;2022-12-29T06:29:24;0.90;99.90
42989;DHT22;28622;43.716;20.668;2022-12-29T06:31:50;0.90;99.90
42989;DHT22;28622;43.716;20.668;2022-12-29T06:34:16;1.00;99.90
42989;DHT22;28622;43.716;20.668;2022-12-29T06:36:42;1.10;99.90
42989;DHT22;28622;43.716;20.668;2022-12-29T06:39:08;1.00;99.90
42989;DHT22;28622;43.716;20.668;2022-12-29T06:41:33;1.00;99.90
42989;DHT22;28622;43.716;20.668;2022-12-29T06:43:59;1.00;99.90
42989;DHT22;28622;43.716;20.668;2022-12-29T06:46:25;1.00;99.90
42989;DHT22;28622;43.716;20.668;2022-12-29T06:48:50;0.90;99.90
42989;DHT22;28622;43.716;20.668;2022-12-29T06:51:16;0.90;99.90
42989;DHT22;28622;43.716;20.668;2022-12-29T06:53:42;0.90;99.90
42989;DHT22;28622;43.716;20.668;2022-12-29T06:56:08;0.90;99.90
42989;DHT22;28622;43.716;20.668;2022-12-29T06:58:33;0.90;99.90
42989;DHT22;28622;43.716;20.668;2022-12-29T07:00:59;1.00;99.90
42989;DHT22;28622;43.716;20.668;2022-12-29T07:03:25;1.00;99.90
42989;DHT22;28622;43.716;20.668;2022-12-29T07:05:51;1.00;99.90
42989;DHT22;28622;43.716;20.668;2022-12-29T07:08:16;1.10;99.90
42989;DHT22;28622;43.716;20.668;2022-12-29T07:10:42;1.20;99.90
42989;DHT22;28622;43.716;20.668;2022-12-29T07:13:08;1.20;99.90
42989;DHT22;28622;43.716;20.668;2022-12-29T07:15:35;1.20;99.90
42989;DHT22;28622;43.716;20.668;2022-12-29T07:18:01;1.20;99.90
42989;DHT22;28622;43.716;20.668;2022-12-29T07:20:28;1.30;99.90
42989;DHT22;28622;43.716;20.668;2022-12-29T07:22:54;1.30;99.90
42989;DHT22;28622;43.716;20.668;2022-12-29T07:25:20;1.30;99.90
42989;DHT22;28622;43.716;20.668;2022-12-29T07:27:45;1.10;99.90
42989;DHT22;28622;43.716;20.668;2022-12-29T07:30:12;1.20;99.90
42989;DHT22;28622;43.716;20.668;2022-12-29T07:32:37;1.20;99.90
42989;DHT22;28622;43.716;20.668;2022-12-29T07:35:03;1.30;99.90
42989;DHT22;28622;43.716;20.668;2022-12-29T07:37:29;1.50;99.90
42989;DHT22;28622;43.716;20.668;2022-12-29T07:39:55;1.70;99.90
42989;DHT22;28622;43.716;20.668;2022-12-29T07:42:21;1.80;99.90
42989;DHT22;28622;43.716;20.668;2022-12-29T07:44:47;1.80;99.90
42989;DHT22;28622;43.716;20.668;2022-12-29T07:47:13;1.80;99.90
42989;DHT22;28622;43.716;20.668;2022-12-29T07:49:39;1.70;99.90
42989;DHT22;28622;43.716;20.668;2022-12-29T07:52:04;1.60;99.90
42989;DHT22;28622;43.716;20.668;2022-12-29T07:54:30;1.60;99.90
42989;DHT22;28622;43.716;20.668;2022-12-29T07:56:56;1.70;99.90
42989;DHT22;28622;43.716;20.668;2022-12-29T07:59:25;1.70;99.90
42989;DHT22;28622;43.716;20.668;2022-12-29T08:01:52;1.80;99.90
42989;DHT22;28622;43.716;20.668;2022-12-29T08:04:17;1.80;99.90
42989;DHT22;28622;43.716;20.668;2022-12-29T08:06:43;1.90;99.90
42989;DHT22;28622;43.716;20.668;2022-12-29T08:09:11;2.00;99.90
42989;DHT22;28622;43.716;20.668;2022-12-29T08:11:36;2.10;99.90
42989;DHT22;28622;43.716;20.668;2022-12-29T08:14:03;2.00;99.90
42989;DHT22;28622;43.716;20.668;2022-12-29T08:16:29;2.10;99.90
42989;DHT22;28622;43.716;20.668;2022-12-29T08:18:54;2.20;99.90
42989;DHT22;28622;43.716;20.668;2022-12-29T08:21:20;2.30;99.90
42989;DHT22;28622;43.716;20.668;2022-12-29T08:23:47;2.60;99.90
42989;DHT22;28622;43.716;20.668;2022-12-29T08:26:13;2.80;99.90
42989;DHT22;28622;43.716;20.668;2022-12-29T08:28:39;3.10;99.90
42989;DHT22;28622;43.716;20.668;2022-12-29T08:31:05;3.40;99.90
42989;DHT22;28622;43.716;20.668;2022-12-29T08:33:30;3.70;99.90
42989;DHT22;28622;43.716;20.668;2022-12-29T08:36:04;3.90;99.90
42989;DHT22;28622;43.716;20.668;2022-12-29T08:38:31;4.00;99.90
42989;DHT22;28622;43.716;20.668;2022-12-29T08:40:57;4.10;99.90
42989;DHT22;28622;43.716;20.668;2022-12-29T08:43:24;4.30;99.90
42989;DHT22;28622;43.716;20.668;2022-12-29T08:45:50;4.50;99.90
42989;DHT22;28622;43.716;20.668;2022-12-29T08:48:16;4.70;99.90
42989;DHT22;28622;43.716;20.668;2022-12-29T08:50:45;5.00;99.90
42989;DHT22;28622;43.716;20.668;2022-12-29T08:53:11;5.40;99.90
42989;DHT22;28622;43.716;20.668;2022-12-29T08:55:37;5.70;99.90
42989;DHT22;28622;43.716;20.668;2022-12-29T08:58:03;6.10;99.90
42989;DHT22;28622;43.716;20.668;2022-12-29T09:00:28;6.60;99.90
42989;DHT22;28622;43.716;20.668;2022-12-29T09:02:54;6.90;99.90
42989;DHT22;28622;43.716;20.668;2022-12-29T09:05:20;7.20;99.90
42989;DHT22;28622;43.716;20.668;2022-12-29T09:07:46;7.50;99.90
42989;DHT22;28622;43.716;20.668;2022-12-29T09:10:12;7.60;99.90
42989;DHT22;28622;43.716;20.668;2022-12-29T09:12:37;7.50;99.90
42989;DHT22;28622;43.716;20.668;2022-12-29T09:15:04;7.40;99.90
42989;DHT22;28622;43.716;20.668;2022-12-29T09:17:31;7.40;99.90
42989;DHT22;28622;43.716;20.668;2022-12-29T09:20:16;7.20;99.90
42989;DHT22;28622;43.716;20.668;2022-12-29T09:22:43;7.20;99.90
42989;DHT22;28622;43.716;20.668;2022-12-29T09:25:10;7.50;99.90
42989;DHT22;28622;43.716;20.668;2022-12-29T09:27:37;7.80;99.90
42989;DHT22;28622;43.716;20.668;2022-12-29T09:30:04;8.00;99.90
42989;DHT22;28622;43.716;20.668;2022-12-29T09:32:32;8.10;99.90
42989;DHT22;28622;43.716;20.668;2022-12-29T09:34:57;8.40;99.90
42989;DHT22;28622;43.716;20.668;2022-12-29T09:37:23;8.80;99.90
42989;DHT22;28622;43.716;20.668;2022-12-29T09:39:49;9.10;99.90
42989;DHT22;28622;43.716;20.668;2022-12-29T09:42:29;9.30;99.90
42989;DHT22;28622;43.716;20.668;2022-12-29T09:47:39;9.90;99.90
42989;DHT22;28622;43.716;20.668;2022-12-29T09:50:34;9.90;99.90
42989;DHT22;28622;43.716;20.668;2022-12-29T09:55:44;9.70;99.90
42989;DHT22;28622;43.716;20.668;2022-12-29T09:58:17;9.70;99.90
42989;DHT22;28622;43.716;20.668;2022-12-29T10:00:52;9.80;99.90
42989;DHT22;28622;43.716;20.668;2022-12-29T10:03:21;9.70;99.90
42989;DHT22;28622;43.716;20.668;2022-12-29T10:05:59;9.30;99.90
42989;DHT22;28622;43.716;20.668;2022-12-29T10:16:23;9.30;99.90
42989;DHT22;28622;43.716;20.668;2022-12-29T10:21:57;9.40;99.90
42989;DHT22;28622;43.716;20.668;2022-12-29T10:24:16;9.70;99.90
42989;DHT22;28622;43.716;20.668;2022-12-29T10:26:45;9.80;99.90
42989;DHT22;28622;43.716;20.668;2022-12-29T10:29:39;10.00;99.90
42989;DHT22;28622;43.716;20.668;2022-12-29T10:34:48;10.40;99.90
42989;DHT22;28622;43.716;20.668;2022-12-29T10:37:38;10.60;99.90
42989;DHT22;28622;43.716;20.668;2022-12-29T10:40:16;10.90;99.90
42989;DHT22;28622;43.716;20.668;2022-12-29T10:42:47;11.10;99.90
42989;DHT22;28622;43.716;20.668;2022-12-29T10:45:16;11.10;99.90
42989;DHT22;28622;43.716;20.668;2022-12-29T10:48:19;11.30;99.90
42989;DHT22;28622;43.716;20.668;2022-12-29T10:50:48;11.20;99.90
42989;DHT22;28622;43.716;20.668;2022-12-29T10:53:23;11.10;99.90
42989;DHT22;28622;43.716;20.668;2022-12-29T10:55:51;11.30;99.90
42989;DHT22;28622;43.716;20.668;2022-12-29T10:58:18;10.90;99.90
42989;DHT22;28622;43.716;20.668;2022-12-29T11:00:50;10.50;99.90
42989;DHT22;28622;43.716;20.668;2022-12-29T11:06:16;10.80;99.90
42989;DHT22;28622;43.716;20.668;2022-12-29T11:09:02;11.00;99.90
42989;DHT22;28622;43.716;20.668;2022-12-29T11:11:35;11.40;99.90
42989;DHT22;28622;43.716;20.668;2022-12-29T11:14:27;11.60;99.90
42989;DHT22;28622;43.716;20.668;2022-12-29T11:17:01;11.80;99.90
42989;DHT22;28622;43.716;20.668;2022-12-29T11:19:28;11.90;99.90
42989;DHT22;28622;43.716;20.668;2022-12-29T11:22:21;12.10;99.90
42989;DHT22;28622;43.716;20.668;2022-12-29T11:24:48;12.10;99.90
42989;DHT22;28622;43.716;20.668;2022-12-29T11:27:17;12.20;99.90
42989;DHT22;28622;43.716;20.668;2022-12-29T11:29:44;12.20;99.90
42989;DHT22;28622;43.716;20.668;2022-12-29T11:32:25;12.60;99.90
42989;DHT22;28622;43.716;20.668;2022-12-29T11:34:51;12.70;99.90
42989;DHT22;28622;43.716;20.668;2022-12-29T11:37:38;12.90;99.90
42989;DHT22;28622;43.716;20.668;2022-12-29T11:40:09;12.80;99.90
42989;DHT22;28622;43.716;20.668;2022-12-29T11:47:48;13.10;99.90
42989;DHT22;28622;43.716;20.668;2022-12-29T11:50:24;13.10;99.60
42989;DHT22;28622;43.716;20.668;2022-12-29T11:53:05;13.20;99.70
42989;DHT22;28622;43.716;20.668;2022-12-29T11:55:33;13.30;99.40
42989;DHT22;28622;43.716;20.668;2022-12-29T11:58:02;13.30;99.60
42989;DHT22;28622;43.716;20.668;2022-12-29T12:00:32;13.40;99.10
42989;DHT22;28622;43.716;20.668;2022-12-29T12:03:19;13.10;98.80
42989;DHT22;28622;43.716;20.668;2022-12-29T12:05:50;12.60;99.00
42989;DHT22;28622;43.716;20.668;2022-12-29T12:08:26;12.30;99.50
42989;DHT22;28622;43.716;20.668;2022-12-29T12:14:04;11.80;99.90
42989;DHT22;28622;43.716;20.668;2022-12-29T12:16:46;11.70;99.90
42989;DHT22;28622;43.716;20.668;2022-12-29T12:19:38;11.50;99.90
42989;DHT22;28622;43.716;20.668;2022-12-29T12:22:13;11.60;99.90
42989;DHT22;28622;43.716;20.668;2022-12-29T12:24:54;12.10;99.90
42989;DHT22;28622;43.716;20.668;2022-12-29T12:27:33;12.40;99.90
42989;DHT22;28622;43.716;20.668;2022-12-29T12:30:15;12.60;99.90
42989;DHT22;28622;43.716;20.668;2022-12-29T12:35:42;13.00;99.90
42989;DHT22;28622;43.716;20.668;2022-12-29T12:46:03;13.30;99.90
42989;DHT22;28622;43.716;20.668;2022-12-29T13:00:19;14.10;98.30
42989;DHT22;28622;43.716;20.668;2022-12-29T13:06:04;14.10;98.60
42989;DHT22;28622;43.716;20.668;2022-12-29T13:34:26;14.00;97.90
42989;DHT22;28622;43.716;20.668;2022-12-29T13:36:56;14.10;97.50
42989;DHT22;28622;43.716;20.668;2022-12-29T13:39:33;13.90;97.50
42989;DHT22;28622;43.716;20.668;2022-12-29T13:42:01;13.70;97.70
42989;DHT22;28622;43.716;20.668;2022-12-29T13:44:51;13.70;97.80
42989;DHT22;28622;43.716;20.668;2022-12-29T13:49:53;13.70;97.70
42989;DHT22;28622;43.716;20.668;2022-12-29T13:55:51;13.60;99.00
42989;DHT22;28622;43.716;20.668;2022-12-29T14:08:49;13.10;99.40
42989;DHT22;28622;43.716;20.668;2022-12-29T14:11:17;13.00;99.90
42989;DHT22;28622;43.716;20.668;2022-12-29T14:13:46;12.80;99.00
42989;DHT22;28622;43.716;20.668;2022-12-29T14:16:26;12.70;99.00
42989;DHT22;28622;43.716;20.668;2022-12-29T14:18:52;12.50;99.30
42989;DHT22;28622;43.716;20.668;2022-12-29T14:21:22;12.30;99.60
42989;DHT22;28622;43.716;20.668;2022-12-29T14:23:50;12.20;99.90
42989;DHT22;28622;43.716;20.668;2022-12-29T14:30:00;12.00;99.90
42989;DHT22;28622;43.716;20.668;2022-12-29T14:32:01;11.90;99.90
42989;DHT22;28622;43.716;20.668;2022-12-29T14:34:28;11.80;99.90
42989;DHT22;28622;43.716;20.668;2022-12-29T14:37:00;11.70;99.90
42989;DHT22;28622;43.716;20.668;2022-12-29T14:39:42;11.60;99.90
42989;DHT22;28622;43.716;20.668;2022-12-29T14:47:31;11.30;99.90
42989;DHT22;28622;43.716;20.668;2022-12-29T14:50:04;11.20;99.90
42989;DHT22;28622;43.716;20.668;2022-12-29T14:52:31;11.10;99.90
42989;DHT22;28622;43.716;20.668;2022-12-29T14:58:02;10.90;99.90
42989;DHT22;28622;43.716;20.668;2022-12-29T15:00:34;10.80;99.90
42989;DHT22;28622;43.716;20.668;2022-12-29T15:05:36;10.60;99.90
42989;DHT22;28622;43.716;20.668;2022-12-29T15:08:10;10.40;99.90
42989;DHT22;28622;43.716;20.668;2022-12-29T15:10:42;10.30;99.90
42989;DHT22;28622;43.716;20.668;2022-12-29T15:13:24;10.30;99.90
42989;DHT22;28622;43.716;20.668;2022-12-29T15:15:50;10.20;99.90
42989;DHT22;28622;43.716;20.668;2022-12-29T15:18:29;10.20;99.90
42989;DHT22;28622;43.716;20.668;2022-12-29T15:21:06;10.10;99.90
42989;DHT22;28622;43.716;20.668;2022-12-29T15:23:34;10.10;99.90
42989;DHT22;28622;43.716;20.668;2022-12-29T15:26:05;9.90;99.90
42989;DHT22;28622;43.716;20.668;2022-12-29T15:28:43;9.90;99.90
42989;DHT22;28622;43.716;20.668;2022-12-29T15:31:18;9.80;99.90
42989;DHT22;28622;43.716;20.668;2022-12-29T15:33:47;9.70;99.90
42989;DHT22;28622;43.716;20.668;2022-12-29T15:36:22;9.60;99.90
42989;DHT22;28622;43.716;20.668;2022-12-29T15:38:49;9.40;99.90
42989;DHT22;28622;43.716;20.668;2022-12-29T15:41:45;9.40;99.90
42989;DHT22;28622;43.716;20.668;2022-12-29T15:44:48;9.30;99.90
42989;DHT22;28622;43.716;20.668;2022-12-29T15:47:24;9.40;99.90
42989;DHT22;28622;43.716;20.668;2022-12-29T15:49:59;9.30;99.90
42989;DHT22;28622;43.716;20.668;2022-12-29T15:52:33;9.20;99.90
42989;DHT22;28622;43.716;20.668;2022-12-29T15:55:00;9.20;99.90
42989;DHT22;28622;43.716;20.668;2022-12-29T15:57:30;9.20;99.90
42989;DHT22;28622;43.716;20.668;2022-12-29T15:59:58;9.00;99.90
42989;DHT22;28622;43.716;20.668;2022-12-29T16:02:26;9.00;99.90
42989;DHT22;28622;43.716;20.668;2022-12-29T16:04:54;9.10;99.90
42989;DHT22;28622;43.716;20.668;2022-12-29T16:07:29;9.00;99.90
42989;DHT22;28622;43.716;20.668;2022-12-29T16:10:00;8.90;99.90
42989;DHT22;28622;43.716;20.668;2022-12-29T16:12:35;8.90;99.90
42989;DHT22;28622;43.716;20.668;2022-12-29T16:15:07;8.90;99.90
42989;DHT22;28622;43.716;20.668;2022-12-29T16:17:48;8.90;99.90
42989;DHT22;28622;43.716;20.668;2022-12-29T16:20:20;9.00;99.90
42989;DHT22;28622;43.716;20.668;2022-12-29T16:22:52;8.90;99.90
42989;DHT22;28622;43.716;20.668;2022-12-29T16:25:22;9.00;99.90
42989;DHT22;28622;43.716;20.668;2022-12-29T16:27:50;9.00;99.90
42989;DHT22;28622;43.716;20.668;2022-12-29T16:30:21;8.90;99.90
42989;DHT22;28622;43.716;20.668;2022-12-29T16:32:49;8.80;99.90
42989;DHT22;28622;43.716;20.668;2022-12-29T16:35:22;8.70;99.90
42989;DHT22;28622;43.716;20.668;2022-12-29T16:38:06;8.70;99.90
42989;DHT22;28622;43.716;20.668;2022-12-29T16:40:33;8.70;99.90
42989;DHT22;28622;43.716;20.668;2022-12-29T16:43:03;8.60;99.90
42989;DHT22;28622;43.716;20.668;2022-12-29T16:50:41;8.60;99.90
42989;DHT22;28622;43.716;20.668;2022-12-29T16:55:47;8.50;99.90
42989;DHT22;28622;43.716;20.668;2022-12-29T16:58:20;8.50;99.90
42989;DHT22;28622;43.716;20.668;2022-12-29T17:00:47;8.40;99.90
42989;DHT22;28622;43.716;20.668;2022-12-29T17:03:13;8.40;99.90
42989;DHT22;28622;43.716;20.668;2022-12-29T17:05:39;8.40;99.90
42989;DHT22;28622;43.716;20.668;2022-12-29T17:08:19;8.30;99.90
42989;DHT22;28622;43.716;20.668;2022-12-29T17:10:53;8.30;99.90
42989;DHT22;28622;43.716;20.668;2022-12-29T17:13:38;8.30;99.90
42989;DHT22;28622;43.716;20.668;2022-12-29T17:16:05;8.30;99.90
42989;DHT22;28622;43.716;20.668;2022-12-29T17:18:33;8.30;99.90
42989;DHT22;28622;43.716;20.668;2022-12-29T17:20:59;8.10;99.90
42989;DHT22;28622;43.716;20.668;2022-12-29T17:23:25;8.10;99.90
42989;DHT22;28622;43.716;20.668;2022-12-29T17:25:52;8.10;99.90
42989;DHT22;28622;43.716;20.668;2022-12-29T17:28:27;8.10;99.90
42989;DHT22;28622;43.716;20.668;2022-12-29T17:31:05;8.00;99.90
42989;DHT22;28622;43.716;20.668;2022-12-29T17:33:36;7.50;99.90
42989;DHT22;28622;43.716;20.668;2022-12-29T17:36:03;7.90;99.90
42989;DHT22;28622;43.716;20.668;2022-12-29T17:38:30;7.80;99.90
42989;DHT22;28622;43.716;20.668;2022-12-29T17:40:57;7.80;99.90
42989;DHT22;28622;43.716;20.668;2022-12-29T17:43:23;7.80;99.90
42989;DHT22;28622;43.716;20.668;2022-12-29T17:48:19;7.70;99.90
42989;DHT22;28622;43.716;20.668;2022-12-29T17:50:50;7.70;99.90
42989;DHT22;28622;43.716;20.668;2022-12-29T17:53:28;7.60;99.90
42989;DHT22;28622;43.716;20.668;2022-12-29T17:55:54;7.60;99.90
42989;DHT22;28622;43.716;20.668;2022-12-29T18:00:53;7.50;99.90
42989;DHT22;28622;43.716;20.668;2022-12-29T18:03:25;7.50;99.90
42989;DHT22;28622;43.716;20.668;2022-12-29T18:05:52;7.40;99.90
42989;DHT22;28622;43.716;20.668;2022-12-29T18:08:18;7.30;99.90
42989;DHT22;28622;43.716;20.668;2022-12-29T18:10:44;7.20;99.90
42989;DHT22;28622;43.716;20.668;2022-12-29T18:13:21;7.10;99.90
42989;DHT22;28622;43.716;20.668;2022-12-29T18:15:49;7.00;99.90
42989;DHT22;28622;43.716;20.668;2022-12-29T18:18:17;6.90;99.90
42989;DHT22;28622;43.716;20.668;2022-12-29T18:20:45;6.90;99.90
42989;DHT22;28622;43.716;20.668;2022-12-29T18:23:25;6.80;99.90
42989;DHT22;28622;43.716;20.668;2022-12-29T18:28:29;6.70;99.90